sensor_id;sensor_type;location;lat;lon;timestamp;pressure;altitude;pressure_sealevel;temperature
78225;BMP280;67498;53.650;10.090;2023-07-28T00:01:32;100088.19;;;16.42
78225;BMP280;67498;53.650;10.090;2023-07-28T00:03:57;100085.63;;;16.48
78225;BMP280;67498;53.650;10.090;2023-07-28T00:06:23;100093.25;;;16.46
78225;BMP280;67498;53.650;10.090;2023-07-28T00:08:48;100087.00;;;16.43
78225;BMP280;67498;53.650;10.090;2023-07-28T00:11:14;100097.25;;;16.41
78225;BMP280;67498;53.650;10.090;2023-07-28T00:13:41;100088.81;;;16.37
78225;BMP280;67498;53.650;10.090;2023-07-28T00:16:07;100089.97;;;16.36
78225;BMP280;67498;53.650;10.090;2023-07-28T00:18:33;100095.50;;;16.38
78225;BMP280;67498;53.650;10.090;2023-07-28T00:20:59;100101.63;;;16.44
78225;BMP280;67498;53.650;10.090;2023-07-28T00:23:24;100081.63;;;16.37
78225;BMP280;67498;53.650;10.090;2023-07-28T00:25:50;100086.41;;;16.39
78225;BMP280;67498;53.650;10.090;2023-07-28T00:28:15;100086.91;;;16.37
78225;BMP280;67498;53.650;10.090;2023-07-28T00:30:40;100066.34;;;16.27
78225;BMP280;67498;53.650;10.090;2023-07-28T00:33:05;100069.97;;;16.29
78225;BMP280;67498;53.650;10.090;2023-07-28T00:35:31;100072.41;;;16.33
78225;BMP280;67498;53.650;10.090;2023-07-28T00:37:57;100075.69;;;16.28
78225;BMP280;67498;53.650;10.090;2023-07-28T00:40:22;100071.88;;;16.29
78225;BMP280;67498;53.650;10.090;2023-07-28T00:42:47;100061.22;;;16.23
78225;BMP280;67498;53.650;10.090;2023-07-28T00:45:13;100054.06;;;16.24
78225;BMP280;67498;53.650;10.090;2023-07-28T00:47:39;100057.72;;;16.26
78225;BMP280;67498;53.650;10.090;2023-07-28T00:50:04;100059.75;;;16.22
78225;BMP280;67498;53.650;10.090;2023-07-28T00:52:30;100061.22;;;16.23
78225;BMP280;67498;53.650;10.090;2023-07-28T00:54:55;100059.63;;;16.26
78225;BMP280;67498;53.650;10.090;2023-07-28T00:57:20;100053.97;;;16.18
78225;BMP280;67498;53.650;10.090;2023-07-28T00:59:46;100065.78;;;16.23
78225;BMP280;67498;53.650;10.090;2023-07-28T01:02:12;100056.69;;;16.24
78225;BMP280;67498;53.650;10.090;2023-07-28T01:04:38;100055.25;;;16.23
78225;BMP280;67498;53.650;10.090;2023-07-28T01:07:09;100052.88;;;16.25
78225;BMP280;67498;53.650;10.090;2023-07-28T01:10:18;100052.69;;;16.28
78225;BMP280;67498;53.650;10.090;2023-07-28T01:12:47;100038.88;;;16.19
78225;BMP280;67498;53.650;10.090;2023-07-28T01:15:13;100049.97;;;16.23
78225;BMP280;67498;53.650;10.090;2023-07-28T01:17:40;100041.94;;;16.17
78225;BMP280;67498;53.650;10.090;2023-07-28T01:20:06;100050.53;;;16.27
78225;BMP280;67498;53.650;10.090;2023-07-28T01:27:37;100041.59;;;16.24
78225;BMP280;67498;53.650;10.090;2023-07-28T01:30:03;100040.16;;;16.23
78225;BMP280;67498;53.650;10.090;2023-07-28T01:32:28;100046.72;;;16.28
78225;BMP280;67498;53.650;10.090;2023-07-28T01:34:54;100053.88;;;16.27
78225;BMP280;67498;53.650;10.090;2023-07-28T01:37:19;100057.25;;;16.28
78225;BMP280;67498;53.650;10.090;2023-07-28T01:39:44;100053.16;;;16.27
78225;BMP280;67498;53.650;10.090;2023-07-28T01:42:09;100051.41;;;16.24
78225;BMP280;67498;53.650;10.090;2023-07-28T01:44:35;100057.41;;;16.24
78225;BMP280;67498;53.650;10.090;2023-07-28T01:47:00;100056.78;;;16.29
78225;BMP280;67498;53.650;10.090;2023-07-28T01:49:25;100055.63;;;16.30
78225;BMP280;67498;53.650;10.090;2023-07-28T01:51:50;100054.63;;;16.28
78225;BMP280;67498;53.650;10.090;2023-07-28T01:54:16;100042.53;;;16.21
78225;BMP280;67498;53.650;10.090;2023-07-28T01:56:41;100055.97;;;16.23
78225;BMP280;67498;53.650;10.090;2023-07-28T01:59:06;100056.78;;;16.29
78225;BMP280;67498;53.650;10.090;2023-07-28T02:01:31;100056.78;;;16.29
78225;BMP280;67498;53.650;10.090;2023-07-28T02:03:57;100045.44;;;16.23
78225;BMP280;67498;53.650;10.090;2023-07-28T02:06:22;100056.34;;;16.31
78225;BMP280;67498;53.650;10.090;2023-07-28T02:08:48;100050.69;;;16.23
78225;BMP280;67498;53.650;10.090;2023-07-28T02:11:13;100052.69;;;16.28
78225;BMP280;67498;53.650;10.090;2023-07-28T02:13:38;100055.34;;;16.28
78225;BMP280;67498;53.650;10.090;2023-07-28T02:16:04;100062.06;;;16.29
78225;BMP280;67498;53.650;10.090;2023-07-28T02:18:29;100066.47;;;16.32
78225;BMP280;67498;53.650;10.090;2023-07-28T02:20:54;100070.50;;;16.33
78225;BMP280;67498;53.650;10.090;2023-07-28T02:23:19;100072.41;;;16.33
78225;BMP280;67498;53.650;10.090;2023-07-28T02:25:45;100066.16;;;16.30
78225;BMP280;67498;53.650;10.090;2023-07-28T02:28:11;100073.16;;;16.33
78225;BMP280;67498;53.650;10.090;2023-07-28T02:30:37;100070.25;;;16.31
78225;BMP280;67498;53.650;10.090;2023-07-28T02:33:02;100077.00;;;16.32
78225;BMP280;67498;53.650;10.090;2023-07-28T02:35:27;100086.19;;;16.37
78225;BMP280;67498;53.650;10.090;2023-07-28T02:37:53;100094.09;;;16.37
78225;BMP280;67498;53.650;10.090;2023-07-28T02:40:18;100093.31;;;16.36
78225;BMP280;67498;53.650;10.090;2023-07-28T02:42:43;100097.31;;;16.32
78225;BMP280;67498;53.650;10.090;2023-07-28T02:45:09;100096.31;;;16.29
78225;BMP280;67498;53.650;10.090;2023-07-28T02:47:35;100105.50;;;16.34
78225;BMP280;67498;53.650;10.090;2023-07-28T02:50:00;100098.63;;;16.27
78225;BMP280;67498;53.650;10.090;2023-07-28T02:52:25;100101.88;;;16.31
78225;BMP280;67498;53.650;10.090;2023-07-28T02:54:51;100101.13;;;16.31
78225;BMP280;67498;53.650;10.090;2023-07-28T02:57:16;100090.66;;;16.22
78225;BMP280;67498;53.650;10.090;2023-07-28T02:59:41;100105.38;;;16.28
78225;BMP280;67498;53.650;10.090;2023-07-28T03:02:07;100107.75;;;16.26
78225;BMP280;67498;53.650;10.090;2023-07-28T03:04:32;100097.13;;;16.21
78225;BMP280;67498;53.650;10.090;2023-07-28T03:06:57;100101.22;;;16.22
78225;BMP280;67498;53.650;10.090;2023-07-28T03:09:22;100107.16;;;16.22
78225;BMP280;67498;53.650;10.090;2023-07-28T03:11:48;100113.03;;;16.26
78225;BMP280;67498;53.650;10.090;2023-07-28T03:14:13;100101.22;;;16.22
78225;BMP280;67498;53.650;10.090;2023-07-28T03:16:39;100102.50;;;16.26
78225;BMP280;67498;53.650;10.090;2023-07-28T03:19:05;100110.41;;;16.26
78225;BMP280;67498;53.650;10.090;2023-07-28T03:21:30;100116.09;;;16.25
78225;BMP280;67498;53.650;10.090;2023-07-28T03:23:56;100109.53;;;16.20
78225;BMP280;67498;53.650;10.090;2023-07-28T03:26:21;100111.91;;;16.18
78225;BMP280;67498;53.650;10.090;2023-07-28T03:28:47;100122.53;;;16.24
78225;BMP280;67498;53.650;10.090;2023-07-28T03:31:12;100111.91;;;16.18
78225;BMP280;67498;53.650;10.090;2023-07-28T03:33:37;100123.28;;;16.24
78225;BMP280;67498;53.650;10.090;2023-07-28T03:36:02;100116.56;;;16.23
78225;BMP280;67498;53.650;10.090;2023-07-28T03:38:28;100110.28;;;16.21
78225;BMP280;67498;53.650;10.090;2023-07-28T03:40:53;100110.91;;;16.15
78225;BMP280;67498;53.650;10.090;2023-07-28T03:43:19;100108.59;;;16.08
78225;BMP280;67498;53.650;10.090;2023-07-28T03:45:45;100115.69;;;16.17
78225;BMP280;67498;53.650;10.090;2023-07-28T03:48:10;100122.19;;;16.16
78225;BMP280;67498;53.650;10.090;2023-07-28T03:50:35;100121.88;;;16.14
78225;BMP280;67498;53.650;10.090;2023-07-28T03:53:01;100119.41;;;16.10
78225;BMP280;67498;53.650;10.090;2023-07-28T03:55:26;100129.78;;;16.14
78225;BMP280;67498;53.650;10.090;2023-07-28T03:57:51;100127.16;;;16.14
78225;BMP280;67498;53.650;10.090;2023-07-28T04:00:16;100131.22;;;16.15
78225;BMP280;67498;53.650;10.090;2023-07-28T04:02:42;100131.69;;;16.13
78225;BMP280;67498;53.650;10.090;2023-07-28T04:05:07;100129.22;;;16.10
78225;BMP280;67498;53.650;10.090;2023-07-28T04:07:33;100132.72;;;16.16
78225;BMP280;67498;53.650;10.090;2023-07-28T04:09:58;100125.66;;;16.13
78225;BMP280;67498;53.650;10.090;2023-07-28T04:12:23;100144.09;;;16.13
78225;BMP280;67498;53.650;10.090;2023-07-28T04:14:49;100136.97;;;16.13
78225;BMP280;67498;53.650;10.090;2023-07-28T04:17:14;100136.03;;;16.16
78225;BMP280;67498;53.650;10.090;2023-07-28T04:19:39;100140.13;;;16.17
78225;BMP280;67498;53.650;10.090;2023-07-28T04:22:05;100146.41;;;16.20
78225;BMP280;67498;53.650;10.090;2023-07-28T04:24:30;100150.63;;;16.27
78225;BMP280;67498;53.650;10.090;2023-07-28T04:26:55;100156.59;;;16.27
78225;BMP280;67498;53.650;10.090;2023-07-28T04:29:21;100153.88;;;16.22
78225;BMP280;67498;53.650;10.090;2023-07-28T04:31:46;100146.97;;;16.24
78225;BMP280;67498;53.650;10.090;2023-07-28T04:34:11;100162.47;;;16.31
78225;BMP280;67498;53.650;10.090;2023-07-28T04:36:36;100158.66;;;16.32
78225;BMP280;67498;53.650;10.090;2023-07-28T04:39:02;100163.34;;;16.28
78225;BMP280;67498;53.650;10.090;2023-07-28T04:41:27;100167.25;;;16.33
78225;BMP280;67498;53.650;10.090;2023-07-28T04:43:52;100175.91;;;16.33
78225;BMP280;67498;53.650;10.090;2023-07-28T04:46:18;100169.00;;;16.36
78225;BMP280;67498;53.650;10.090;2023-07-28T04:48:43;100166.56;;;16.32
78225;BMP280;67498;53.650;10.090;2023-07-28T04:51:08;100171.34;;;16.34
78225;BMP280;67498;53.650;10.090;2023-07-28T04:53:34;100174.72;;;16.34
78225;BMP280;67498;53.650;10.090;2023-07-28T04:55:59;100162.06;;;16.24
78225;BMP280;67498;53.650;10.090;2023-07-28T04:58:24;100185.25;;;16.34
78225;BMP280;67498;53.650;10.090;2023-07-28T05:00:50;100185.72;;;16.33
78225;BMP280;67498;53.650;10.090;2023-07-28T05:03:15;100187.66;;;16.32
78225;BMP280;67498;53.650;10.090;2023-07-28T05:05:43;100181.63;;;16.32
78225;BMP280;67498;53.650;10.090;2023-07-28T05:08:09;100181.63;;;16.32
78225;BMP280;67498;53.650;10.090;2023-07-28T05:10:34;100189.78;;;16.34
78225;BMP280;67498;53.650;10.090;2023-07-28T05:12:59;100191.56;;;16.37
78225;BMP280;67498;53.650;10.090;2023-07-28T05:15:25;100197.84;;;16.39
78225;BMP280;67498;53.650;10.090;2023-07-28T05:17:50;100186.31;;;16.37
78225;BMP280;67498;53.650;10.090;2023-07-28T05:20:15;100196.47;;;16.44
78225;BMP280;67498;53.650;10.090;2023-07-28T05:22:41;100196.94;;;16.43
78225;BMP280;67498;53.650;10.090;2023-07-28T05:25:07;100199.69;;;16.48
78225;BMP280;67498;53.650;10.090;2023-07-28T05:27:32;100197.03;;;16.48
78225;BMP280;67498;53.650;10.090;2023-07-28T05:29:57;100193.31;;;16.55
78225;BMP280;67498;53.650;10.090;2023-07-28T05:32:23;100201.00;;;16.67
78225;BMP280;67498;53.650;10.090;2023-07-28T05:34:48;100197.94;;;16.69
78225;BMP280;67498;53.650;10.090;2023-07-28T05:37:13;100209.28;;;16.75
78225;BMP280;67498;53.650;10.090;2023-07-28T05:39:38;100208.66;;;16.80
78225;BMP280;67498;53.650;10.090;2023-07-28T05:42:04;100207.22;;;16.79
78225;BMP280;67498;53.650;10.090;2023-07-28T05:44:29;100192.91;;;16.71
78225;BMP280;67498;53.650;10.090;2023-07-28T05:46:54;100198.75;;;16.75
78225;BMP280;67498;53.650;10.090;2023-07-28T05:49:20;100207.47;;;16.81
78225;BMP280;67498;53.650;10.090;2023-07-28T05:51:45;100207.34;;;16.85
78225;BMP280;67498;53.650;10.090;2023-07-28T05:54:12;100212.78;;;16.96
78225;BMP280;67498;53.650;10.090;2023-07-28T05:56:39;100202.06;;;17.00
78225;BMP280;67498;53.650;10.090;2023-07-28T05:59:04;100221.09;;;17.04
78225;BMP280;67498;53.650;10.090;2023-07-28T06:01:30;100206.44;;;17.03
78225;BMP280;67498;53.650;10.090;2023-07-28T06:03:56;100216.53;;;17.04
78225;BMP280;67498;53.650;10.090;2023-07-28T06:06:26;100218.00;;;17.05
78225;BMP280;67498;53.650;10.090;2023-07-28T06:08:52;100229.38;;;17.11
78225;BMP280;67498;53.650;10.090;2023-07-28T06:11:17;100232.72;;;17.12
78225;BMP280;67498;53.650;10.090;2023-07-28T06:13:43;100243.13;;;17.30
78225;BMP280;67498;53.650;10.090;2023-07-28T06:16:09;100227.09;;;17.34
78225;BMP280;67498;53.650;10.090;2023-07-28T06:18:34;100237.00;;;17.39
78225;BMP280;67498;53.650;10.090;2023-07-28T06:20:59;100231.75;;;17.39
78225;BMP280;67498;53.650;10.090;2023-07-28T06:23:24;100236.13;;;17.42
78225;BMP280;67498;53.650;10.090;2023-07-28T06:25:50;100224.75;;;17.36
78225;BMP280;67498;53.650;10.090;2023-07-28T06:28:15;100244.03;;;17.42
78225;BMP280;67498;53.650;10.090;2023-07-28T06:30:40;100237.56;;;17.43
78225;BMP280;67498;53.650;10.090;2023-07-28T06:33:06;100236.75;;;17.52
78225;BMP280;67498;53.650;10.090;2023-07-28T06:35:32;100245.84;;;17.65
78225;BMP280;67498;53.650;10.090;2023-07-28T06:37:57;100247.56;;;17.68
78225;BMP280;67498;53.650;10.090;2023-07-28T06:40:22;100253.88;;;17.71
78225;BMP280;67498;53.650;10.090;2023-07-28T06:42:47;100261.78;;;17.71
78225;BMP280;67498;53.650;10.090;2023-07-28T06:45:13;100265.13;;;17.72
78225;BMP280;67498;53.650;10.090;2023-07-28T06:47:39;100270.59;;;17.68
78225;BMP280;67498;53.650;10.090;2023-07-28T06:50:05;100272.72;;;17.64
78225;BMP280;67498;53.650;10.090;2023-07-28T06:52:30;100260.75;;;17.54
78225;BMP280;67498;53.650;10.090;2023-07-28T06:54:56;100255.22;;;17.52
78225;BMP280;67498;53.650;10.090;2023-07-28T06:57:21;100263.31;;;17.63
78225;BMP280;67498;53.650;10.090;2023-07-28T06:59:47;100263.22;;;17.72
78225;BMP280;67498;53.650;10.090;2023-07-28T07:02:12;100261.28;;;17.87
78225;BMP280;67498;53.650;10.090;2023-07-28T07:04:37;100269.56;;;18.51
78225;BMP280;67498;53.650;10.090;2023-07-28T07:07:03;100271.22;;;18.68
78225;BMP280;67498;53.650;10.090;2023-07-28T07:09:28;100265.31;;;18.79
78225;BMP280;67498;53.650;10.090;2023-07-28T07:11:54;100279.00;;;19.24
78225;BMP280;67498;53.650;10.090;2023-07-28T07:14:19;100288.69;;;19.64
78225;BMP280;67498;53.650;10.090;2023-07-28T07:16:45;100287.47;;;19.60
78225;BMP280;67498;53.650;10.090;2023-07-28T07:19:10;100289.91;;;19.37
78225;BMP280;67498;53.650;10.090;2023-07-28T07:21:35;100296.50;;;19.16
78225;BMP280;67498;53.650;10.090;2023-07-28T07:24:02;100298.91;;;18.93
78225;BMP280;67498;53.650;10.090;2023-07-28T07:26:28;100305.81;;;18.85
78225;BMP280;67498;53.650;10.090;2023-07-28T07:28:53;100304.03;;;18.77
78225;BMP280;67498;53.650;10.090;2023-07-28T07:31:18;100309.63;;;18.64
78225;BMP280;67498;53.650;10.090;2023-07-28T07:33:44;100315.72;;;18.50
78225;BMP280;67498;53.650;10.090;2023-07-28T07:36:16;100316.13;;;18.42
78225;BMP280;67498;53.650;10.090;2023-07-28T07:38:41;100321.53;;;18.33
78225;BMP280;67498;53.650;10.090;2023-07-28T07:41:07;100329.44;;;18.33
78225;BMP280;67498;53.650;10.090;2023-07-28T07:43:34;100334.19;;;18.29
78225;BMP280;67498;53.650;10.090;2023-07-28T07:45:59;100342.13;;;18.29
78225;BMP280;67498;53.650;10.090;2023-07-28T07:48:24;100342.81;;;18.30
78225;BMP280;67498;53.650;10.090;2023-07-28T07:50:51;100337.50;;;18.24
78225;BMP280;67498;53.650;10.090;2023-07-28T07:53:16;100338.19;;;18.25
78225;BMP280;67498;53.650;10.090;2023-07-28T07:55:41;100338.47;;;18.27
78225;BMP280;67498;53.650;10.090;2023-07-28T07:58:07;100341.66;;;18.31
78225;BMP280;67498;53.650;10.090;2023-07-28T08:00:32;100348.22;;;18.35
78225;BMP280;67498;53.650;10.090;2023-07-28T08:02:57;100343.72;;;18.41
78225;BMP280;67498;53.650;10.090;2023-07-28T08:05:22;100345.91;;;18.43
78225;BMP280;67498;53.650;10.090;2023-07-28T08:07:47;100351.25;;;18.49
78225;BMP280;67498;53.650;10.090;2023-07-28T08:10:13;100349.44;;;18.55
78225;BMP280;67498;53.650;10.090;2023-07-28T08:12:38;100349.91;;;18.53
78225;BMP280;67498;53.650;10.090;2023-07-28T08:15:04;100355.25;;;18.59
78225;BMP280;67498;53.650;10.090;2023-07-28T08:17:29;100361.28;;;18.59
78225;BMP280;67498;53.650;10.090;2023-07-28T08:19:55;100363.19;;;18.59
78225;BMP280;67498;53.650;10.090;2023-07-28T08:22:20;100361.00;;;18.57
78225;BMP280;67498;53.650;10.090;2023-07-28T08:24:45;100357.25;;;18.64
78225;BMP280;67498;53.650;10.090;2023-07-28T08:27:10;100353.28;;;18.74
78225;BMP280;67498;53.650;10.090;2023-07-28T08:29:36;100364.88;;;18.77
78225;BMP280;67498;53.650;10.090;2023-07-28T08:32:01;100363.94;;;18.80
78225;BMP280;67498;53.650;10.090;2023-07-28T08:34:27;100359.88;;;18.84
78225;BMP280;67498;53.650;10.090;2023-07-28T08:36:52;100367.91;;;18.90
78225;BMP280;67498;53.650;10.090;2023-07-28T08:39:18;100375.88;;;18.95
78225;BMP280;67498;53.650;10.090;2023-07-28T08:41:43;100377.72;;;19.04
78225;BMP280;67498;53.650;10.090;2023-07-28T08:44:08;100376.31;;;19.09
78225;BMP280;67498;53.650;10.090;2023-07-28T08:46:33;100391.84;;;19.21
78225;BMP280;67498;53.650;10.090;2023-07-28T08:49:02;100388.97;;;19.25
78225;BMP280;67498;53.650;10.090;2023-07-28T08:51:27;100385.16;;;19.26
78225;BMP280;67498;53.650;10.090;2023-07-28T08:53:53;100390.91;;;19.25
78225;BMP280;67498;53.650;10.090;2023-07-28T08:56:18;100391.84;;;19.21
78225;BMP280;67498;53.650;10.090;2023-07-28T08:58:45;100396.13;;;19.19
78225;BMP280;67498;53.650;10.090;2023-07-28T09:01:11;100392.19;;;19.09
78225;BMP280;67498;53.650;10.090;2023-07-28T09:03:39;100399.63;;;19.10
78225;BMP280;67498;53.650;10.090;2023-07-28T09:06:06;100398.19;;;19.09
78225;BMP280;67498;53.650;10.090;2023-07-28T09:08:35;100404.50;;;19.12
78225;BMP280;67498;53.650;10.090;2023-07-28T09:11:04;100403.00;;;19.11
78225;BMP280;67498;53.650;10.090;2023-07-28T09:13:40;100392.38;;;19.05
78225;BMP280;67498;53.650;10.090;2023-07-28T09:16:18;100397.50;;;19.09
78225;BMP280;67498;53.650;10.090;2023-07-28T09:18:44;100391.78;;;19.16
78225;BMP280;67498;53.650;10.090;2023-07-28T09:21:20;100392.09;;;19.23
78225;BMP280;67498;53.650;10.090;2023-07-28T09:23:47;100399.94;;;19.38
78225;BMP280;67498;53.650;10.090;2023-07-28T09:26:14;100406.03;;;19.44
78225;BMP280;67498;53.650;10.090;2023-07-28T09:28:40;100406.28;;;19.46
78225;BMP280;67498;53.650;10.090;2023-07-28T09:31:05;100409.00;;;19.52
78225;BMP280;67498;53.650;10.090;2023-07-28T09:33:32;100400.25;;;19.46
78225;BMP280;67498;53.650;10.090;2023-07-28T09:36:07;100405.59;;;19.52
78225;BMP280;67498;53.650;10.090;2023-07-28T09:38:36;100407.81;;;19.53
78225;BMP280;67498;53.650;10.090;2023-07-28T09:41:03;100410.03;;;19.60
78225;BMP280;67498;53.650;10.090;2023-07-28T09:43:31;100408.63;;;19.65
78225;BMP280;67498;53.650;10.090;2023-07-28T09:45:56;100417.38;;;19.71
78225;BMP280;67498;53.650;10.090;2023-07-28T09:48:22;100417.38;;;19.71
78225;BMP280;67498;53.650;10.090;2023-07-28T09:50:49;100413.97;;;19.70
78225;BMP280;67498;53.650;10.090;2023-07-28T09:53:15;100415.97;;;19.76
78225;BMP280;67498;53.650;10.090;2023-07-28T09:55:42;100417.94;;;19.81
78225;BMP280;67498;53.650;10.090;2023-07-28T09:58:09;100411.88;;;19.80
78225;BMP280;67498;53.650;10.090;2023-07-28T10:00:35;100415.59;;;19.88
78225;BMP280;67498;53.650;10.090;2023-07-28T10:03:02;100420.19;;;19.93
78225;BMP280;67498;53.650;10.090;2023-07-28T10:05:27;100414.47;;;20.00
78225;BMP280;67498;53.650;10.090;2023-07-28T10:07:54;100415.28;;;20.12
78225;BMP280;67498;53.650;10.090;2023-07-28T10:10:19;100416.72;;;20.13
78225;BMP280;67498;53.650;10.090;2023-07-28T10:12:51;100419.44;;;20.24
78225;BMP280;67498;53.650;10.090;2023-07-28T10:15:19;100425.53;;;20.31
78225;BMP280;67498;53.650;10.090;2023-07-28T10:17:51;100427.97;;;20.40
78225;BMP280;67498;53.650;10.090;2023-07-28T10:20:39;100429.28;;;20.50
78225;BMP280;67498;53.650;10.090;2023-07-28T10:25:41;100427.66;;;20.64
78225;BMP280;67498;53.650;10.090;2023-07-28T10:28:25;100427.41;;;20.67
78225;BMP280;67498;53.650;10.090;2023-07-28T10:30:52;100424.28;;;20.69
78225;BMP280;67498;53.650;10.090;2023-07-28T10:33:29;100431.28;;;20.72
78225;BMP280;67498;53.650;10.090;2023-07-28T10:35:54;100444.56;;;20.72
78225;BMP280;67498;53.650;10.090;2023-07-28T10:38:34;100436.09;;;20.68
78225;BMP280;67498;53.650;10.090;2023-07-28T10:41:06;100439.47;;;20.68
78225;BMP280;67498;53.650;10.090;2023-07-28T10:43:32;100439.25;;;20.66
78225;BMP280;67498;53.650;10.090;2023-07-28T10:45:57;100451.56;;;20.69
78225;BMP280;67498;53.650;10.090;2023-07-28T10:48:23;100452.72;;;20.68
78225;BMP280;67498;53.650;10.090;2023-07-28T10:50:49;100447.44;;;20.63
78225;BMP280;67498;53.650;10.090;2023-07-28T10:53:15;100446.16;;;20.52
78225;BMP280;67498;53.650;10.090;2023-07-28T10:55:40;100459.66;;;20.54
78225;BMP280;67498;53.650;10.090;2023-07-28T10:58:06;100458.88;;;20.43
78225;BMP280;67498;53.650;10.090;2023-07-28T11:00:31;100460.28;;;20.38
78225;BMP280;67498;53.650;10.090;2023-07-28T11:02:57;100454.22;;;20.32
78225;BMP280;67498;53.650;10.090;2023-07-28T11:05:28;100460.78;;;20.37
78225;BMP280;67498;53.650;10.090;2023-07-28T11:07:56;100455.47;;;20.37
78225;BMP280;67498;53.650;10.090;2023-07-28T11:10:21;100452.81;;;20.37
78225;BMP280;67498;53.650;10.090;2023-07-28T11:12:49;100449.44;;;20.42
78225;BMP280;67498;53.650;10.090;2023-07-28T11:15:15;100453.34;;;20.46
78225;BMP280;67498;53.650;10.090;2023-07-28T11:17:42;100457.00;;;20.54
78225;BMP280;67498;53.650;10.090;2023-07-28T11:20:18;100460.16;;;20.59
78225;BMP280;67498;53.650;10.090;2023-07-28T11:22:45;100452.44;;;20.49
78225;BMP280;67498;53.650;10.090;2023-07-28T11:25:11;100460.38;;;20.55
78225;BMP280;67498;53.650;10.090;2023-07-28T11:27:37;100460.41;;;20.61
78225;BMP280;67498;53.650;10.090;2023-07-28T11:30:03;100453.03;;;20.76
78225;BMP280;67498;53.650;10.090;2023-07-28T11:32:30;100453.31;;;20.89
78225;BMP280;67498;53.650;10.090;2023-07-28T11:35:02;100445.94;;;21.04
78225;BMP280;67498;53.650;10.090;2023-07-28T11:37:29;100456.38;;;21.30
78225;BMP280;67498;53.650;10.090;2023-07-28T11:39:55;100453.50;;;21.56
78225;BMP280;67498;53.650;10.090;2023-07-28T11:42:22;100454.97;;;21.63
78225;BMP280;67498;53.650;10.090;2023-07-28T11:44:47;100458.13;;;21.67
78225;BMP280;67498;53.650;10.090;2023-07-28T11:47:17;100457.88;;;21.65
78225;BMP280;67498;53.650;10.090;2023-07-28T11:49:49;100466.09;;;21.67
78225;BMP280;67498;53.650;10.090;2023-07-28T11:52:16;100473.59;;;21.80
78225;BMP280;67498;53.650;10.090;2023-07-28T11:54:41;100469.75;;;21.81
78225;BMP280;67498;53.650;10.090;2023-07-28T11:57:08;100469.47;;;21.84
78225;BMP280;67498;53.650;10.090;2023-07-28T11:59:34;100483.72;;;21.87
78225;BMP280;67498;53.650;10.090;2023-07-28T12:02:01;100482.28;;;21.80
78225;BMP280;67498;53.650;10.090;2023-07-28T12:04:32;100499.44;;;21.85
78225;BMP280;67498;53.650;10.090;2023-07-28T12:09:51;100492.69;;;21.90
78225;BMP280;67498;53.650;10.090;2023-07-28T12:12:19;100490.28;;;21.86
78225;BMP280;67498;53.650;10.090;2023-07-28T12:14:45;100504.53;;;21.89
78225;BMP280;67498;53.650;10.090;2023-07-28T12:17:21;100498.97;;;21.86
78225;BMP280;67498;53.650;10.090;2023-07-28T12:22:28;100492.44;;;21.87
78225;BMP280;67498;53.650;10.090;2023-07-28T12:24:54;100501.41;;;21.90
78225;BMP280;67498;53.650;10.090;2023-07-28T12:27:19;100499.69;;;21.98
78225;BMP280;67498;53.650;10.090;2023-07-28T12:29:48;100515.69;;;22.09
78225;BMP280;67498;53.650;10.090;2023-07-28T12:32:14;100516.13;;;22.13
78225;BMP280;67498;53.650;10.090;2023-07-28T12:34:39;100508.16;;;22.13
78225;BMP280;67498;53.650;10.090;2023-07-28T12:37:05;100516.88;;;22.20
78225;BMP280;67498;53.650;10.090;2023-07-28T12:39:31;100517.59;;;22.20
78225;BMP280;67498;53.650;10.090;2023-07-28T12:41:56;100519.06;;;22.21
78225;BMP280;67498;53.650;10.090;2023-07-28T12:44:21;100515.16;;;22.22
78225;BMP280;67498;53.650;10.090;2023-07-28T12:46:47;100518.31;;;22.26
78225;BMP280;67498;53.650;10.090;2023-07-28T12:49:12;100523.13;;;22.28
78225;BMP280;67498;53.650;10.090;2023-07-28T12:51:39;100525.59;;;22.26
78225;BMP280;67498;53.650;10.090;2023-07-28T12:54:05;100522.41;;;22.16
78225;BMP280;67498;53.650;10.090;2023-07-28T12:56:30;100522.91;;;22.20
78225;BMP280;67498;53.650;10.090;2023-07-28T12:58:55;100529.41;;;22.30
78225;BMP280;67498;53.650;10.090;2023-07-28T13:01:20;100529.91;;;22.34
78225;BMP280;67498;53.650;10.090;2023-07-28T13:03:46;100527.25;;;22.34
78225;BMP280;67498;53.650;10.090;2023-07-28T13:06:11;100532.78;;;22.42
78225;BMP280;67498;53.650;10.090;2023-07-28T13:08:36;100538.59;;;22.46
78225;BMP280;67498;53.650;10.090;2023-07-28T13:11:02;100538.59;;;22.46
78225;BMP280;67498;53.650;10.090;2023-07-28T13:13:27;100544.91;;;22.43
78225;BMP280;67498;53.650;10.090;2023-07-28T13:15:54;100541.53;;;22.43
78225;BMP280;67498;53.650;10.090;2023-07-28T13:18:20;100540.81;;;22.36
78225;BMP280;67498;53.650;10.090;2023-07-28T13:20:45;100543.19;;;22.34
78225;BMP280;67498;53.650;10.090;2023-07-28T13:23:10;100551.44;;;22.25
78225;BMP280;67498;53.650;10.090;2023-07-28T13:25:36;100552.16;;;22.14
78225;BMP280;67498;53.650;10.090;2023-07-28T13:28:01;100545.16;;;22.06
78225;BMP280;67498;53.650;10.090;2023-07-28T13:30:26;100545.88;;;22.01
78225;BMP280;67498;53.650;10.090;2023-07-28T13:32:51;100543.47;;;21.97
78225;BMP280;67498;53.650;10.090;2023-07-28T13:35:16;100548.28;;;21.99
78225;BMP280;67498;53.650;10.090;2023-07-28T13:37:42;100549.03;;;22.05
78225;BMP280;67498;53.650;10.090;2023-07-28T13:40:08;100535.22;;;22.06
78225;BMP280;67498;53.650;10.090;2023-07-28T13:42:33;100542.50;;;22.11
78225;BMP280;67498;53.650;10.090;2023-07-28T13:44:58;100535.94;;;22.18
78225;BMP280;67498;53.650;10.090;2023-07-28T13:47:24;100528.25;;;22.26
78225;BMP280;67498;53.650;10.090;2023-07-28T13:49:49;100538.88;;;22.37
78225;BMP280;67498;53.650;10.090;2023-07-28T13:52:14;100547.31;;;22.52